METAR Data
IDs: Format: Raw Decoded Include TAF

Data at: 1450 UTC 10 Aug 2022

KSCK 101355Z AUTO 00000KT 10SM CLR 16/13 A3003 RMK AO2 SLP168 T01610133
KSCK 101255Z AUTO 27004KT 10SM CLR 16/13 A3001 RMK AO2 SLP162 T01560128
KSCK 101155Z 27008KT 10SM CLR 17/14 A3000 RMK AO2 SLP160 T01720139 10194 20161 53003
KSCK 101055Z 30005KT 10SM CLR 17/13 A3000 RMK AO2 SLP159 T01670133
KSCK 100955Z 29009KT 10SM CLR 18/13 A3000 RMK AO2 SLP157 T01780133
KSCK 100855Z 28009KT 10SM CLR 18/13 A2999 RMK AO2 SLP156 T01780133 50002
KSCK 100755Z 29006KT 10SM CLR 18/13 A3000 RMK AO2 SLP158 T01830133 403280178
KSCK 100655Z 29008KT 10SM CLR 19/13 A2999 RMK AO2 SLP155 T01890133
KSCK 100555Z 29008KT 10SM CLR 19/13 A2999 RMK AO2 SLP154 T01940133 10322 20194 51022
KSCK 100455Z 29009KT 10SM CLR 22/13 A2997 RMK AO2 SLP149 T02170133
KSCK 100355Z 30012KT 10SM CLR 23/12 A2994 RMK AO2 SLP139 T02330122
KSCK 100255Z 32009KT 10SM CLR 25/13 A2992 RMK AO2 SLP132 T02500133 53013
KSCK 100155Z 31014KT 10SM CLR 28/13 A2990 RMK AO2 SLP125 T02780128
KSCK 100055Z 31011KT 10SM CLR 31/12 A2989 RMK AO2 SLP122 T03110117
KSCK 092355Z 31010G15KT 10SM CLR 32/12 A2989 RMK AO2 SLP119 T03170122 10328 20261 56014
KSCK 092255Z 29009KT 10SM CLR 32/12 A2989 RMK AO2 SLP122 T03220122
KSCK 092155Z 28006G15KT 10SM CLR 32/13 A2991 RMK AO2 SLP127 T03220133
KSCK 092055Z 32007G14KT 10SM CLR 31/13 A2993 RMK AO2 SLP134 T03110128 58009
KSCK 091955Z 31008KT 10SM CLR 29/13 A2994 RMK AO2 SLP138 T02940128
KSCK 091855Z 31008KT 10SM CLR 27/13 A2995 RMK AO2 SLP142 T02670128
KSCK 091755Z 29010KT 10SM CLR 27/13 A2995 RMK AO2 SLP143 T02670128 10267 20178 50001
KSCK 091655Z 30010KT 10SM SCT110 24/13 A2996 RMK AO2 SLP145 T02390128
KSCK 091555Z 29009KT 10SM CLR 22/13 A2996 RMK AO2 SLP144 T02220128
KSCK 091455Z 28012KT 10SM CLR 20/13 A2995 RMK AO2 SLP142 T02000133 53012
KSCK 091355Z 29009KT 10SM CLR 18/13 A2994 RMK AO2 SLP138 T01830133
KSCK 091255Z AUTO 28010KT 10SM CLR 18/13 A2992 RMK AO2 SLP132 T01780128
KSCK 091155Z AUTO 28010KT 10SM CLR 18/13 A2992 RMK AO2 SLP130 T01830133 10211 20183 53004
KSCK 091055Z AUTO 29007KT 10SM CLR 18/13 A2991 RMK AO2 SLP127 T01830128
KSCK 090955Z AUTO 32006KT 10SM CLR 19/13 A2991 RMK AO2 SLP126 T01940128
KSCK 090855Z AUTO 31006KT 10SM CLR 19/13 A2990 RMK AO2 SLP126 T01940133 58001
KSCK 090755Z AUTO 32005KT 10SM CLR 19/13 A2991 RMK AO2 SLP129 T01940133 403390161
KSCK 090655Z AUTO 30007KT 10SM CLR 21/13 A2991 RMK AO2 SLP129 T02060128
KSCK 090555Z AUTO 29012KT 10SM CLR 21/13 A2991 RMK AO2 SLP127 T02110128 10328 20211 51009
KSCK 090455Z AUTO 28011KT 10SM CLR 22/13 A2991 RMK AO2 SLP126 T02220133
KSCK 090355Z AUTO 28012KT 10SM CLR 24/13 A2989 RMK AO2 SLP122 T02390128
KSCK 090255Z 28013KT 10SM CLR 27/12 A2988 RMK AO2 SLP117 T02720117 53002